createdAt,value
2023-03-20T00:00:00.316Z,100.77
2023-03-20T00:02:29.385Z,90.50
2023-03-20T00:04:58.429Z,90.00
2023-03-20T00:07:27.809Z,104.20
2023-03-20T00:09:58.075Z,115.80
2023-03-20T00:12:28.604Z,114.13
2023-03-20T00:14:57.765Z,130.50
2023-03-20T00:17:26.674Z,119.27
2023-03-20T00:19:55.568Z,99.33
2023-03-20T00:22:24.502Z,84.57
2023-03-20T00:24:54.593Z,79.70
2023-03-20T00:27:23.605Z,110.00
2023-03-20T00:29:53.969Z,108.03
2023-03-20T00:32:22.914Z,111.67
2023-03-20T00:34:51.830Z,81.17
2023-03-20T00:37:20.858Z,92.90
2023-03-20T00:39:49.780Z,104.23
2023-03-20T00:42:22.711Z,102.57
2023-03-20T00:44:59.949Z,99.40
2023-03-20T00:47:30.750Z,103.30
2023-03-20T00:49:59.946Z,141.23
2023-03-20T00:52:29.533Z,242.90
2023-03-20T00:54:58.483Z,666.03
2023-03-20T00:57:31.183Z,450.93
2023-03-20T01:00:05.648Z,306.50
2023-03-20T01:02:55.090Z,967.67
2023-03-20T01:05:27.626Z,143.20
2023-03-20T01:07:57.234Z,212.37
2023-03-20T01:10:31.437Z,147.33
2023-03-20T01:13:03.118Z,148.50
2023-03-20T01:15:35.698Z,110.17
2023-03-20T01:18:05.241Z,122.23
2023-03-20T01:20:34.187Z,135.47
2023-03-20T01:23:03.013Z,108.43
2023-03-20T01:25:32.144Z,133.33
2023-03-20T01:28:01.347Z,84.57
2023-03-20T01:30:32.738Z,104.40
2023-03-20T01:33:08.427Z,121.07
2023-03-20T01:35:37.784Z,107.90
2023-03-20T01:38:15.853Z,78.40
2023-03-20T01:40:55.737Z,62.97
2023-03-20T01:43:27.323Z,60.93
2023-03-20T01:46:02.962Z,66.23
2023-03-20T01:49:08.164Z,50.80
2023-03-20T01:51:39.486Z,47.73
2023-03-20T01:54:16.525Z,54.90
2023-03-20T01:57:12.658Z,54.80
2023-03-20T01:59:46.507Z,57.53
2023-03-20T02:02:18.116Z,58.00
2023-03-20T02:04:51.917Z,58.53
2023-03-20T02:07:24.799Z,61.00
2023-03-20T02:10:04.227Z,53.40
2023-03-20T02:12:50.546Z,49.27
2023-03-20T02:15:29.188Z,45.90
2023-03-20T02:18:13.083Z,63.63
2023-03-20T02:21:01.826Z,58.30
2023-03-20T02:24:06.519Z,60.83
2023-03-20T02:26:51.232Z,63.77
2023-03-20T02:30:03.926Z,65.67
2023-03-20T02:33:09.039Z,60.23
2023-03-20T02:36:22.486Z,69.70
2023-03-20T02:39:12.272Z,58.63
2023-03-20T02:41:46.128Z,54.57
2023-03-20T02:44:21.960Z,55.73
2023-03-20T02:47:02.377Z,60.63
2023-03-20T02:49:56.158Z,54.50
2023-03-20T02:52:35.010Z,122.67
2023-03-20T02:55:33.165Z,136.70
2023-03-20T02:58:17.365Z,113.47
2023-03-20T03:00:52.049Z,84.47
2023-03-20T03:03:25.865Z,95.40
2023-03-20T03:05:59.415Z,91.97
2023-03-20T03:08:33.973Z,77.80
2023-03-20T03:11:06.833Z,90.00
2023-03-20T03:13:40.830Z,89.50
2023-03-20T03:16:15.932Z,94.40
2023-03-20T03:18:48.130Z,88.03
2023-03-20T03:21:18.929Z,86.67
2023-03-20T03:23:49.543Z,87.67
2023-03-20T03:26:25.774Z,82.53
2023-03-20T03:29:01.863Z,94.83
2023-03-20T03:31:33.085Z,94.17
2023-03-20T03:34:03.544Z,107.07
2023-03-20T03:36:43.219Z,102.53
2023-03-20T03:39:20.716Z,76.10
2023-03-20T03:41:54.654Z,86.10
2023-03-20T03:44:29.573Z,88.60
2023-03-20T03:47:03.776Z,90.90
2023-03-20T03:49:35.923Z,85.00
2023-03-20T03:52:10.164Z,94.87
2023-03-20T03:54:44.716Z,98.50
2023-03-20T03:57:38.357Z,187.97
2023-03-20T04:00:13.074Z,329.17
2023-03-20T04:02:44.107Z,352.23
2023-03-20T04:05:14.993Z,217.50
2023-03-20T04:07:46.695Z,161.53
2023-03-20T04:10:16.484Z,149.77
2023-03-20T04:12:47.274Z,154.23
2023-03-20T04:15:18.709Z,140.57
2023-03-20T04:17:48.013Z,155.93
2023-03-20T04:20:18.626Z,129.67
2023-03-20T04:22:49.089Z,126.77
2023-03-20T04:25:20.926Z,138.97
2023-03-20T04:27:52.739Z,133.03
2023-03-20T04:30:40.079Z,141.83
2023-03-20T04:33:19.278Z,139.27
2023-03-20T04:36:04.748Z,129.37
2023-03-20T04:38:35.203Z,112.17
2023-03-20T04:41:04.993Z,121.30
2023-03-20T04:43:35.396Z,139.57
2023-03-20T04:46:04.547Z,132.10
2023-03-20T04:48:33.522Z,157.00
2023-03-20T04:51:03.006Z,142.33
2023-03-20T04:53:44.065Z,145.20
2023-03-20T04:56:13.191Z,123.00
2023-03-20T04:58:43.635Z,118.27
2023-03-20T05:01:13.308Z,129.93
2023-03-20T05:03:42.594Z,127.47
2023-03-20T05:06:11.998Z,123.90
2023-03-20T05:08:44.224Z,118.23
2023-03-20T05:11:13.368Z,111.70
2023-03-20T05:14:10.255Z,100.27
2023-03-20T05:16:54.089Z,108.03
2023-03-20T05:19:35.784Z,106.23
2023-03-20T05:22:20.040Z,104.63
2023-03-20T05:25:08.346Z,92.33
2023-03-20T05:27:43.184Z,87.90
2023-03-20T05:30:33.677Z,83.67
2023-03-20T05:33:25.727Z,80.10
2023-03-20T05:36:14.970Z,71.93
2023-03-20T05:39:02.324Z,80.73
2023-03-20T05:41:54.308Z,79.80
2023-03-20T05:44:42.797Z,83.60
2023-03-20T05:47:36.241Z,76.77
2023-03-20T05:50:23.616Z,76.37
2023-03-20T05:53:01.924Z,79.10
2023-03-20T05:55:44.899Z,78.53
2023-03-20T05:58:45.635Z,75.97
2023-03-20T06:01:37.609Z,88.80
2023-03-20T06:04:29.900Z,78.43
2023-03-20T06:07:20.160Z,73.50
2023-03-20T06:09:58.492Z,81.40
2023-03-20T06:12:28.632Z,78.60
2023-03-20T06:15:16.042Z,65.47
2023-03-20T06:17:52.187Z,71.23
2023-03-20T06:20:23.208Z,80.43
2023-03-20T06:22:52.322Z,72.80
2023-03-20T06:25:21.863Z,80.90
2023-03-20T06:27:51.800Z,93.53
2023-03-20T06:30:21.693Z,88.27
2023-03-20T06:32:52.196Z,67.23
2023-03-20T06:35:24.263Z,56.63
2023-03-20T06:37:53.580Z,61.67
2023-03-20T06:40:27.537Z,60.67
2023-03-20T06:43:01.981Z,62.87
2023-03-20T06:45:41.908Z,58.20
2023-03-20T06:48:22.320Z,59.63
2023-03-20T06:51:05.591Z,63.73
2023-03-20T06:53:44.415Z,71.53
2023-03-20T06:56:23.137Z,59.53
2023-03-20T06:58:54.212Z,49.93
2023-03-20T07:01:23.927Z,56.33
2023-03-20T07:03:53.598Z,47.33
2023-03-20T07:06:29.274Z,51.77
2023-03-20T07:09:10.144Z,48.80
2023-03-20T07:11:40.697Z,79.47
2023-03-20T07:14:13.708Z,70.73
2023-03-20T07:17:05.295Z,65.50
2023-03-20T07:19:37.916Z,45.37
2023-03-20T07:22:13.545Z,43.50
2023-03-20T07:24:43.532Z,54.03
2023-03-20T07:27:32.482Z,43.03
2023-03-20T07:30:01.475Z,60.13
2023-03-20T07:32:31.190Z,51.93
2023-03-20T07:35:00.481Z,77.53
2023-03-20T07:37:31.604Z,51.50
2023-03-20T07:40:09.885Z,63.37
2023-03-20T07:42:57.558Z,40.10
2023-03-20T07:45:45.354Z,39.00
2023-03-20T07:48:14.270Z,35.73
2023-03-20T07:50:43.236Z,54.70
2023-03-20T07:53:13.755Z,56.53
2023-03-20T07:55:42.809Z,55.50
2023-03-20T07:58:12.666Z,67.47
2023-03-20T08:00:42.279Z,74.00
2023-03-20T08:03:11.576Z,76.33
2023-03-20T08:05:42.087Z,99.10
2023-03-20T08:08:14.681Z,76.63
2023-03-20T08:10:43.873Z,62.53
2023-03-20T08:13:12.746Z,82.50
2023-03-20T08:15:46.781Z,58.63
2023-03-20T08:18:15.762Z,52.70
2023-03-20T08:20:44.714Z,66.77
2023-03-20T08:23:15.077Z,46.57
2023-03-20T08:25:48.103Z,48.50
2023-03-20T08:28:17.798Z,51.33
2023-03-20T08:30:47.502Z,53.97
2023-03-20T08:33:18.577Z,69.17
2023-03-20T08:35:57.422Z,119.40
2023-03-20T08:38:28.057Z,91.30
2023-03-20T08:40:57.159Z,106.83
2023-03-20T08:43:26.185Z,82.13
2023-03-20T08:45:55.683Z,58.30
2023-03-20T08:48:26.621Z,53.70
2023-03-20T08:50:56.318Z,49.60
2023-03-20T08:53:27.474Z,47.00
2023-03-20T08:55:56.824Z,49.93
2023-03-20T08:58:25.885Z,52.93
2023-03-20T09:00:54.910Z,72.50
2023-03-20T09:03:24.000Z,79.33
2023-03-20T09:05:53.610Z,51.63
2023-03-20T09:08:22.565Z,66.97
2023-03-20T09:10:53.649Z,49.30
2023-03-20T09:13:27.405Z,70.93
2023-03-20T09:34:33.840Z,58.77
2023-03-20T09:37:03.516Z,44.03
2023-03-20T09:39:32.449Z,49.67
2023-03-20T09:42:12.199Z,47.20
2023-03-20T09:44:51.303Z,54.90
2023-03-20T09:47:29.639Z,33.50
2023-03-20T09:50:22.595Z,30.73
2023-03-20T09:52:59.336Z,46.30
2023-03-20T09:55:35.685Z,66.57
2023-03-20T09:58:11.432Z,47.83
2023-03-20T10:00:43.852Z,51.83
2023-03-20T10:03:19.836Z,45.23
2023-03-20T10:05:56.220Z,49.57
2023-03-20T10:08:32.020Z,53.07
2023-03-20T10:11:40.718Z,49.80
2023-03-20T10:14:18.837Z,52.83
2023-03-20T10:16:59.467Z,42.57
2023-03-20T10:19:33.099Z,41.87
2023-03-20T10:22:16.038Z,48.40
2023-03-20T10:24:52.732Z,59.07
2023-03-20T10:27:47.795Z,46.93
2023-03-20T10:30:45.990Z,49.30
2023-03-20T10:33:34.102Z,43.63
2023-03-20T10:36:15.326Z,107.80
2023-03-20T10:38:51.368Z,45.13
2023-03-20T10:41:24.283Z,40.03
2023-03-20T10:43:58.324Z,66.73
2023-03-20T10:46:31.869Z,51.20
2023-03-20T10:49:05.654Z,102.83
2023-03-20T10:51:41.584Z,53.77
2023-03-20T10:54:22.680Z,46.00
2023-03-20T10:57:17.089Z,41.40
2023-03-20T10:59:50.216Z,58.97
2023-03-20T11:02:21.377Z,63.50
2023-03-20T11:04:50.424Z,42.77
2023-03-20T11:07:26.433Z,44.33
2023-03-20T11:10:18.292Z,38.73
2023-03-20T11:12:49.816Z,34.00
2023-03-20T11:15:27.119Z,32.50
2023-03-20T11:17:58.417Z,164.07
2023-03-20T11:20:29.583Z,128.93
2023-03-20T11:23:04.018Z,55.67
2023-03-20T11:25:36.939Z,135.67
2023-03-20T11:28:36.838Z,40.50
2023-03-20T11:31:08.858Z,41.00
2023-03-20T11:33:40.673Z,31.33
2023-03-20T11:36:21.674Z,29.40
2023-03-20T11:38:52.416Z,40.07
2023-03-20T11:41:27.925Z,43.37
2023-03-20T11:43:57.186Z,57.83
2023-03-20T11:46:27.158Z,32.73
2023-03-20T11:49:19.126Z,38.40
2023-03-20T11:51:49.802Z,31.70
2023-03-20T11:54:22.852Z,48.93
2023-03-20T11:57:33.632Z,58.93
2023-03-20T12:00:24.291Z,42.97
2023-03-20T12:02:53.351Z,33.73
2023-03-20T12:05:41.031Z,38.13
2023-03-20T12:08:17.567Z,39.00
2023-03-20T12:10:52.168Z,58.43
2023-03-20T12:13:26.466Z,46.60
2023-03-20T12:15:59.821Z,43.60
2023-03-20T12:18:36.196Z,43.03
2023-03-20T12:21:11.325Z,35.73
2023-03-20T12:23:45.281Z,41.97
2023-03-20T12:26:16.363Z,34.93
2023-03-20T12:28:53.591Z,36.57
2023-03-20T12:31:28.225Z,38.77
2023-03-20T12:34:01.808Z,42.13
2023-03-20T12:36:34.620Z,31.27
2023-03-20T12:39:06.054Z,36.60
2023-03-20T12:41:43.513Z,29.70
2023-03-20T12:44:31.254Z,33.67
2023-03-20T12:47:11.078Z,39.73
2023-03-20T12:49:52.190Z,51.77
2023-03-20T12:52:29.666Z,35.67
2023-03-20T12:55:26.026Z,57.20
2023-03-20T12:58:07.596Z,35.37
2023-03-20T13:00:42.713Z,72.27
2023-03-20T13:03:33.957Z,35.63
2023-03-20T13:06:10.475Z,32.97
2023-03-20T13:09:08.583Z,37.30
2023-03-20T13:11:46.149Z,30.47
2023-03-20T13:14:21.301Z,35.50
2023-03-20T13:16:56.975Z,30.17
2023-03-20T13:19:35.734Z,40.43
2023-03-20T13:22:09.382Z,32.77
2023-03-20T13:24:42.900Z,28.60
2023-03-20T13:27:33.666Z,57.73
2023-03-20T13:30:06.946Z,33.77
2023-03-20T13:32:51.007Z,49.97
2023-03-20T13:35:32.239Z,52.60
2023-03-20T13:38:08.293Z,53.83
2023-03-20T13:40:43.703Z,46.83
2023-03-20T13:43:25.694Z,51.50
2023-03-20T13:46:03.300Z,35.93
2023-03-20T13:48:37.995Z,35.37
2023-03-20T13:51:15.552Z,34.07
2023-03-20T13:53:54.403Z,29.40
2023-03-20T13:56:34.864Z,33.97
2023-03-20T13:59:20.137Z,66.97
2023-03-20T14:01:58.753Z,36.50
2023-03-20T14:04:30.728Z,43.57
2023-03-20T14:07:00.736Z,35.47
2023-03-20T14:09:33.980Z,34.50
2023-03-20T14:12:05.757Z,35.73
2023-03-20T14:14:43.120Z,40.60
2023-03-20T14:17:19.340Z,36.70
2023-03-20T14:19:51.748Z,28.87
2023-03-20T14:22:23.577Z,31.27
2023-03-20T14:24:59.239Z,41.23
2023-03-20T14:27:43.388Z,35.70
2023-03-20T14:30:45.128Z,40.37
2023-03-20T14:33:32.753Z,46.93
2023-03-20T14:36:22.621Z,52.83
2023-03-20T14:39:15.692Z,43.40
2023-03-20T14:42:07.268Z,49.63
2023-03-20T14:44:53.241Z,41.93
2023-03-20T14:47:33.185Z,43.43
2023-03-20T14:50:10.851Z,53.57
2023-03-20T14:53:01.008Z,36.50
2023-03-20T14:55:33.563Z,70.50
2023-03-20T14:58:07.864Z,49.37
2023-03-20T15:00:46.193Z,60.47
2023-03-20T15:03:18.224Z,56.53
2023-03-20T15:05:48.610Z,50.63
2023-03-20T15:08:25.713Z,34.50
2023-03-20T15:10:58.212Z,48.00
2023-03-20T15:13:29.508Z,43.30
2023-03-20T15:16:05.069Z,49.43
2023-03-20T15:18:39.778Z,82.47
2023-03-20T15:21:15.226Z,76.53
2023-03-20T15:23:47.945Z,59.20
2023-03-20T15:26:19.701Z,50.70
2023-03-20T15:28:49.573Z,88.07
2023-03-20T15:31:24.781Z,69.33
2023-03-20T15:33:53.971Z,50.00
2023-03-20T15:36:27.004Z,46.03
2023-03-20T15:39:07.259Z,47.37
2023-03-20T15:41:39.505Z,49.77
2023-03-20T15:44:29.178Z,59.50
2023-03-20T15:47:08.854Z,68.23
2023-03-20T15:49:41.271Z,66.87
2023-03-20T15:52:21.735Z,129.50
2023-03-20T15:55:20.091Z,102.27
2023-03-20T15:57:50.643Z,69.47
2023-03-20T16:00:43.378Z,86.33
2023-03-20T16:03:17.283Z,80.33
2023-03-20T16:05:48.137Z,58.43
2023-03-20T16:08:23.764Z,54.00
2023-03-20T16:10:57.981Z,73.93
2023-03-20T16:13:28.137Z,74.23
2023-03-20T16:15:57.338Z,60.60
2023-03-20T16:18:26.631Z,61.20
2023-03-20T16:21:00.424Z,61.53
2023-03-20T16:23:51.991Z,54.47
2023-03-20T16:26:24.178Z,64.83
2023-03-20T16:28:56.464Z,79.57
2023-03-20T16:31:29.897Z,87.10
2023-03-20T16:34:01.337Z,75.23
2023-03-20T16:36:32.714Z,83.77
2023-03-20T16:39:09.061Z,83.10
2023-03-20T16:41:42.222Z,93.37
2023-03-20T16:44:17.161Z,92.63
2023-03-20T16:46:59.050Z,150.30
2023-03-20T16:50:07.111Z,153.40
2023-03-20T16:52:39.787Z,131.30
2023-03-20T16:55:16.851Z,296.27
2023-03-20T16:58:03.080Z,222.27
2023-03-20T17:00:34.499Z,230.77
2023-03-20T17:03:18.772Z,235.37
2023-03-20T17:05:54.853Z,196.03
2023-03-20T17:08:36.017Z,119.47
2023-03-20T17:11:11.917Z,107.17
2023-03-20T17:13:43.533Z,122.60
2023-03-20T17:16:16.239Z,277.40
2023-03-20T17:18:47.907Z,312.00
2023-03-20T17:21:20.878Z,337.73
2023-03-20T17:23:50.593Z,370.40
2023-03-20T17:26:19.395Z,347.73
2023-03-20T17:28:49.828Z,335.83
2023-03-20T17:31:20.042Z,288.73
2023-03-20T17:33:49.194Z,295.93
2023-03-20T17:36:22.103Z,307.03
2023-03-20T17:38:51.168Z,304.33
2023-03-20T17:41:21.816Z,340.47
2023-03-20T17:43:52.798Z,385.03
2023-03-20T17:46:22.899Z,367.20
2023-03-20T17:48:52.993Z,371.97
2023-03-20T17:51:21.913Z,391.93
2023-03-20T17:53:55.351Z,379.10
2023-03-20T17:56:24.372Z,309.67
2023-03-20T17:58:55.176Z,299.90
2023-03-20T18:01:24.249Z,216.10
2023-03-20T18:03:53.251Z,138.03
2023-03-20T18:06:25.824Z,121.43
2023-03-20T18:08:55.076Z,114.43
2023-03-20T18:11:24.524Z,135.97
2023-03-20T18:13:54.942Z,154.97
2023-03-20T18:16:42.529Z,177.33
2023-03-20T18:19:22.489Z,173.80
2023-03-20T18:21:51.430Z,125.83
2023-03-20T18:24:20.465Z,149.57
2023-03-20T18:26:49.585Z,173.00
2023-03-20T18:29:21.306Z,157.07
2023-03-20T18:31:50.626Z,160.93
2023-03-20T18:34:19.864Z,154.13
2023-03-20T18:36:49.268Z,179.80
2023-03-20T18:39:19.640Z,206.07
2023-03-20T18:41:50.984Z,203.83
2023-03-20T18:44:22.053Z,219.20
2023-03-20T18:46:51.844Z,246.07
2023-03-20T18:49:22.380Z,216.70
2023-03-20T18:51:53.442Z,148.93
2023-03-20T18:54:22.583Z,150.17
2023-03-20T18:56:52.145Z,124.07
2023-03-20T18:59:27.118Z,131.37
2023-03-20T19:01:57.406Z,122.07
2023-03-20T19:04:27.302Z,148.47
2023-03-20T19:06:56.409Z,139.37
2023-03-20T19:09:25.220Z,110.97
2023-03-20T19:11:54.086Z,109.83
2023-03-20T19:14:25.982Z,104.83
2023-03-20T19:16:54.896Z,114.17
2023-03-20T19:19:23.749Z,211.83
2023-03-20T19:21:52.607Z,162.80
2023-03-20T19:24:21.868Z,158.90
2023-03-20T19:26:50.929Z,177.13
2023-03-20T19:29:19.726Z,127.30
2023-03-20T19:31:50.548Z,140.23
2023-03-20T19:35:00.910Z,98.37
2023-03-20T19:37:13.620Z,117.77
2023-03-20T19:39:43.232Z,154.07
2023-03-20T19:42:45.844Z,210.70
2023-03-20T19:45:01.805Z,217.20
2023-03-20T19:47:32.193Z,140.03
2023-03-20T19:50:01.144Z,136.10
2023-03-20T19:52:34.235Z,148.70
2023-03-20T19:55:04.176Z,154.57
2023-03-20T19:57:33.121Z,157.10
2023-03-20T20:00:48.685Z,230.77
2023-03-20T20:02:52.874Z,146.50
2023-03-20T20:05:28.702Z,131.80
2023-03-20T20:10:48.740Z,93.50
2023-03-20T20:13:20.631Z,83.30
2023-03-20T20:15:51.156Z,79.50
2023-03-20T20:18:23.417Z,91.67
2023-03-20T20:21:42.555Z,96.30
2023-03-20T20:23:42.845Z,98.97
2023-03-20T20:26:11.790Z,107.13
2023-03-20T20:28:40.856Z,92.93
2023-03-20T20:31:09.809Z,101.83
2023-03-20T20:33:41.119Z,98.67
2023-03-20T20:36:57.647Z,97.23
2023-03-20T20:39:01.263Z,114.60
2023-03-20T20:41:30.648Z,107.67
2023-03-20T20:44:17.195Z,114.60
2023-03-20T20:46:47.648Z,113.90
2023-03-20T20:49:19.931Z,106.87
2023-03-20T20:51:49.697Z,115.67
2023-03-20T20:54:18.700Z,98.53
2023-03-20T20:56:47.623Z,97.63
2023-03-20T20:59:16.482Z,89.27
2023-03-20T21:01:46.054Z,118.93
2023-03-20T21:04:16.531Z,123.80
2023-03-20T21:09:35.055Z,136.43
2023-03-20T21:12:04.183Z,161.87
2023-03-20T21:14:33.255Z,200.87
2023-03-20T21:17:03.258Z,208.63
2023-03-20T21:19:36.133Z,148.93
2023-03-20T21:22:05.194Z,146.67
2023-03-20T21:24:35.286Z,135.17
2023-03-20T21:27:05.999Z,126.73
2023-03-20T21:29:34.961Z,103.50
2023-03-20T21:32:04.044Z,105.20
2023-03-20T21:34:34.446Z,91.53
2023-03-20T21:37:49.561Z,94.97
2023-03-20T21:39:53.402Z,138.37
2023-03-20T21:42:23.011Z,200.00
2023-03-20T21:45:39.025Z,190.47
2023-03-20T21:51:09.753Z,103.53
2023-03-20T21:56:56.670Z,115.73
2023-03-20T22:02:08.305Z,98.87
2023-03-20T22:07:58.275Z,112.17
2023-03-20T22:14:19.112Z,102.20
2023-03-20T22:17:13.366Z,126.47
2023-03-20T22:19:56.238Z,116.90
2023-03-20T22:22:48.627Z,118.27
2023-03-20T22:25:25.828Z,135.03
2023-03-20T22:28:07.121Z,154.13
2023-03-20T22:31:18.963Z,138.73
2023-03-20T22:34:16.160Z,122.63
2023-03-20T22:36:46.865Z,134.83
2023-03-20T22:42:24.256Z,105.10
2023-03-20T22:47:36.676Z,96.53
2023-03-20T22:50:06.379Z,111.77
2023-03-20T22:52:55.745Z,118.93
2023-03-20T22:55:26.296Z,125.97
2023-03-20T22:58:06.739Z,136.67
2023-03-20T23:00:36.864Z,163.53
2023-03-20T23:03:19.626Z,131.60
2023-03-20T23:05:55.774Z,127.57
2023-03-20T23:08:25.091Z,121.87
2023-03-20T23:10:53.887Z,113.10
2023-03-20T23:13:24.251Z,99.30
2023-03-20T23:15:53.243Z,110.50
2023-03-20T23:18:22.063Z,114.97
2023-03-20T23:20:51.040Z,110.50
2023-03-20T23:23:20.041Z,109.27
2023-03-20T23:25:48.891Z,101.63
2023-03-20T23:28:17.802Z,105.27
2023-03-20T23:30:59.875Z,106.63
2023-03-20T23:33:37.182Z,108.43
2023-03-20T23:36:18.620Z,91.73
2023-03-20T23:38:51.803Z,90.03
2023-03-20T23:41:43.617Z,102.47
2023-03-20T23:44:13.840Z,95.60
2023-03-20T23:46:51.169Z,91.50
2023-03-20T23:49:21.270Z,89.63
2023-03-20T23:51:50.138Z,90.37
2023-03-20T23:54:19.372Z,117.07
2023-03-20T23:56:48.966Z,116.40
2023-03-20T23:59:22.110Z,103.07
